sensor_id;sensor_type;location;lat;lon;timestamp;P1;durP1;ratioP1;P2;durP2;ratioP2
68438;SDS011;55421;51.600;5.718;2023-07-24T00:00:39;3.20;;;2.10;;
68438;SDS011;55421;51.600;5.718;2023-07-24T00:03:26;2.10;;;1.90;;
68438;SDS011;55421;51.600;5.718;2023-07-24T00:05:53;2.60;;;1.80;;
68438;SDS011;55421;51.600;5.718;2023-07-24T00:08:19;2.90;;;1.60;;
68438;SDS011;55421;51.600;5.718;2023-07-24T00:10:46;2.30;;;1.90;;
68438;SDS011;55421;51.600;5.718;2023-07-24T00:13:12;2.70;;;2.10;;
68438;SDS011;55421;51.600;5.718;2023-07-24T00:15:39;2.80;;;2.10;;
68438;SDS011;55421;51.600;5.718;2023-07-24T00:18:06;3.50;;;1.90;;
68438;SDS011;55421;51.600;5.718;2023-07-24T00:20:32;2.30;;;2.10;;
68438;SDS011;55421;51.600;5.718;2023-07-24T00:22:58;1.90;;;1.80;;
68438;SDS011;55421;51.600;5.718;2023-07-24T00:25:25;3.30;;;2.40;;
68438;SDS011;55421;51.600;5.718;2023-07-24T00:27:52;2.50;;;2.00;;
68438;SDS011;55421;51.600;5.718;2023-07-24T00:30:18;4.60;;;2.10;;
68438;SDS011;55421;51.600;5.718;2023-07-24T00:32:44;5.00;;;2.00;;
68438;SDS011;55421;51.600;5.718;2023-07-24T00:35:11;2.20;;;1.80;;
68438;SDS011;55421;51.600;5.718;2023-07-24T00:37:37;2.20;;;2.00;;
68438;SDS011;55421;51.600;5.718;2023-07-24T00:40:05;2.80;;;2.40;;
68438;SDS011;55421;51.600;5.718;2023-07-24T00:42:32;4.80;;;2.10;;
68438;SDS011;55421;51.600;5.718;2023-07-24T00:44:58;2.70;;;2.40;;
68438;SDS011;55421;51.600;5.718;2023-07-24T00:47:26;2.50;;;2.10;;
68438;SDS011;55421;51.600;5.718;2023-07-24T00:49:54;7.00;;;2.30;;
68438;SDS011;55421;51.600;5.718;2023-07-24T00:52:21;2.20;;;2.00;;
68438;SDS011;55421;51.600;5.718;2023-07-24T00:54:49;3.80;;;1.90;;
68438;SDS011;55421;51.600;5.718;2023-07-24T00:57:16;3.40;;;2.20;;
68438;SDS011;55421;51.600;5.718;2023-07-24T00:59:44;3.70;;;2.10;;
68438;SDS011;55421;51.600;5.718;2023-07-24T01:02:11;2.50;;;2.10;;
68438;SDS011;55421;51.600;5.718;2023-07-24T01:04:38;6.50;;;2.60;;
68438;SDS011;55421;51.600;5.718;2023-07-24T01:07:05;4.70;;;2.00;;
68438;SDS011;55421;51.600;5.718;2023-07-24T01:09:32;2.50;;;2.20;;
68438;SDS011;55421;51.600;5.718;2023-07-24T01:12:04;3.40;;;2.30;;
68438;SDS011;55421;51.600;5.718;2023-07-24T01:14:45;5.50;;;2.60;;
68438;SDS011;55421;51.600;5.718;2023-07-24T01:17:15;3.20;;;2.30;;
68438;SDS011;55421;51.600;5.718;2023-07-24T01:19:49;2.90;;;2.10;;
68438;SDS011;55421;51.600;5.718;2023-07-24T01:25:09;4.30;;;2.40;;
68438;SDS011;55421;51.600;5.718;2023-07-24T01:27:46;2.80;;;2.60;;
68438;SDS011;55421;51.600;5.718;2023-07-24T01:30:19;4.20;;;2.50;;
68438;SDS011;55421;51.600;5.718;2023-07-24T01:32:47;5.20;;;2.90;;
68438;SDS011;55421;51.600;5.718;2023-07-24T01:35:14;3.20;;;2.90;;
68438;SDS011;55421;51.600;5.718;2023-07-24T01:37:43;6.20;;;2.80;;
68438;SDS011;55421;51.600;5.718;2023-07-24T01:40:10;4.70;;;2.90;;
68438;SDS011;55421;51.600;5.718;2023-07-24T01:42:38;3.80;;;2.90;;
68438;SDS011;55421;51.600;5.718;2023-07-24T01:45:06;4.60;;;2.90;;
68438;SDS011;55421;51.600;5.718;2023-07-24T01:47:33;4.20;;;2.90;;
68438;SDS011;55421;51.600;5.718;2023-07-24T01:49:59;5.00;;;3.30;;
68438;SDS011;55421;51.600;5.718;2023-07-24T01:52:26;4.80;;;2.70;;
68438;SDS011;55421;51.600;5.718;2023-07-24T01:54:52;4.00;;;2.80;;
68438;SDS011;55421;51.600;5.718;2023-07-24T01:57:19;4.60;;;3.40;;
68438;SDS011;55421;51.600;5.718;2023-07-24T01:59:45;5.00;;;3.50;;
68438;SDS011;55421;51.600;5.718;2023-07-24T02:02:12;5.20;;;3.40;;
68438;SDS011;55421;51.600;5.718;2023-07-24T02:04:38;4.60;;;2.90;;
68438;SDS011;55421;51.600;5.718;2023-07-24T02:07:05;3.50;;;2.90;;
68438;SDS011;55421;51.600;5.718;2023-07-24T02:09:33;3.90;;;3.10;;
68438;SDS011;55421;51.600;5.718;2023-07-24T02:12:00;8.60;;;3.60;;
68438;SDS011;55421;51.600;5.718;2023-07-24T02:14:28;3.20;;;2.80;;
68438;SDS011;55421;51.600;5.718;2023-07-24T02:16:55;5.70;;;3.30;;
68438;SDS011;55421;51.600;5.718;2023-07-24T02:19:21;3.90;;;3.10;;
68438;SDS011;55421;51.600;5.718;2023-07-24T02:21:48;3.90;;;3.10;;
68438;SDS011;55421;51.600;5.718;2023-07-24T02:24:14;4.30;;;3.20;;
68438;SDS011;55421;51.600;5.718;2023-07-24T02:26:40;3.10;;;2.80;;
68438;SDS011;55421;51.600;5.718;2023-07-24T02:29:07;3.10;;;2.80;;
68438;SDS011;55421;51.600;5.718;2023-07-24T02:31:34;3.80;;;3.00;;
68438;SDS011;55421;51.600;5.718;2023-07-24T02:34:00;4.20;;;2.70;;
68438;SDS011;55421;51.600;5.718;2023-07-24T02:36:27;4.70;;;2.90;;
68438;SDS011;55421;51.600;5.718;2023-07-24T02:38:53;3.60;;;2.80;;
68438;SDS011;55421;51.600;5.718;2023-07-24T02:41:20;3.30;;;3.00;;
68438;SDS011;55421;51.600;5.718;2023-07-24T02:43:46;5.20;;;3.40;;
68438;SDS011;55421;51.600;5.718;2023-07-24T02:46:13;3.60;;;3.00;;
68438;SDS011;55421;51.600;5.718;2023-07-24T02:48:39;4.50;;;3.20;;
68438;SDS011;55421;51.600;5.718;2023-07-24T02:51:06;4.30;;;3.30;;
68438;SDS011;55421;51.600;5.718;2023-07-24T02:53:32;3.60;;;3.20;;
68438;SDS011;55421;51.600;5.718;2023-07-24T02:56:01;5.90;;;3.50;;
68438;SDS011;55421;51.600;5.718;2023-07-24T02:58:28;5.90;;;3.60;;
68438;SDS011;55421;51.600;5.718;2023-07-24T03:01:05;8.40;;;3.60;;
68438;SDS011;55421;51.600;5.718;2023-07-24T03:03:33;5.70;;;3.90;;
68438;SDS011;55421;51.600;5.718;2023-07-24T03:06:00;4.60;;;3.40;;
68438;SDS011;55421;51.600;5.718;2023-07-24T03:08:26;3.10;;;2.80;;
68438;SDS011;55421;51.600;5.718;2023-07-24T03:10:53;3.30;;;3.00;;
68438;SDS011;55421;51.600;5.718;2023-07-24T03:13:19;4.00;;;2.50;;
68438;SDS011;55421;51.600;5.718;2023-07-24T03:15:53;2.80;;;2.60;;
68438;SDS011;55421;51.600;5.718;2023-07-24T03:18:21;2.60;;;2.40;;
68438;SDS011;55421;51.600;5.718;2023-07-24T03:20:48;2.60;;;2.30;;
68438;SDS011;55421;51.600;5.718;2023-07-24T03:23:15;2.20;;;2.00;;
68438;SDS011;55421;51.600;5.718;2023-07-24T03:25:42;2.30;;;1.90;;
68438;SDS011;55421;51.600;5.718;2023-07-24T03:28:09;2.80;;;2.20;;
68438;SDS011;55421;51.600;5.718;2023-07-24T03:30:36;3.70;;;2.30;;
68438;SDS011;55421;51.600;5.718;2023-07-24T03:33:04;2.40;;;2.00;;
68438;SDS011;55421;51.600;5.718;2023-07-24T03:35:30;2.20;;;2.00;;
68438;SDS011;55421;51.600;5.718;2023-07-24T03:37:57;2.20;;;2.00;;
68438;SDS011;55421;51.600;5.718;2023-07-24T03:40:23;2.20;;;1.90;;
68438;SDS011;55421;51.600;5.718;2023-07-24T03:42:50;2.10;;;1.80;;
68438;SDS011;55421;51.600;5.718;2023-07-24T03:45:16;2.20;;;2.10;;
68438;SDS011;55421;51.600;5.718;2023-07-24T03:47:43;5.30;;;2.30;;
68438;SDS011;55421;51.600;5.718;2023-07-24T03:50:09;2.70;;;2.10;;
68438;SDS011;55421;51.600;5.718;2023-07-24T03:52:36;2.40;;;2.20;;
68438;SDS011;55421;51.600;5.718;2023-07-24T03:55:03;2.50;;;2.20;;
68438;SDS011;55421;51.600;5.718;2023-07-24T03:57:30;2.20;;;2.00;;
68438;SDS011;55421;51.600;5.718;2023-07-24T03:59:57;4.00;;;2.30;;
68438;SDS011;55421;51.600;5.718;2023-07-24T04:02:23;2.50;;;2.20;;
68438;SDS011;55421;51.600;5.718;2023-07-24T04:04:50;2.30;;;2.10;;
68438;SDS011;55421;51.600;5.718;2023-07-24T04:07:16;2.50;;;2.30;;
68438;SDS011;55421;51.600;5.718;2023-07-24T04:09:43;2.70;;;2.50;;
68438;SDS011;55421;51.600;5.718;2023-07-24T04:12:09;2.50;;;2.00;;
68438;SDS011;55421;51.600;5.718;2023-07-24T04:14:36;3.00;;;2.40;;
68438;SDS011;55421;51.600;5.718;2023-07-24T04:17:02;2.50;;;2.10;;
68438;SDS011;55421;51.600;5.718;2023-07-24T04:19:29;2.90;;;2.10;;
68438;SDS011;55421;51.600;5.718;2023-07-24T04:21:55;3.30;;;2.30;;
68438;SDS011;55421;51.600;5.718;2023-07-24T04:24:22;2.70;;;2.20;;
68438;SDS011;55421;51.600;5.718;2023-07-24T04:26:48;2.60;;;2.10;;
68438;SDS011;55421;51.600;5.718;2023-07-24T04:29:15;3.70;;;2.40;;
68438;SDS011;55421;51.600;5.718;2023-07-24T04:31:41;2.90;;;2.30;;
68438;SDS011;55421;51.600;5.718;2023-07-24T04:34:08;3.70;;;2.50;;
68438;SDS011;55421;51.600;5.718;2023-07-24T04:36:34;3.10;;;2.70;;
68438;SDS011;55421;51.600;5.718;2023-07-24T04:39:00;4.90;;;2.60;;
68438;SDS011;55421;51.600;5.718;2023-07-24T04:41:27;4.30;;;2.90;;
68438;SDS011;55421;51.600;5.718;2023-07-24T04:43:53;3.00;;;2.70;;
68438;SDS011;55421;51.600;5.718;2023-07-24T04:46:20;2.90;;;2.70;;
68438;SDS011;55421;51.600;5.718;2023-07-24T04:48:46;2.80;;;2.50;;
68438;SDS011;55421;51.600;5.718;2023-07-24T04:51:13;2.90;;;2.60;;
68438;SDS011;55421;51.600;5.718;2023-07-24T04:53:39;2.50;;;2.30;;
68438;SDS011;55421;51.600;5.718;2023-07-24T04:56:06;2.70;;;2.50;;
68438;SDS011;55421;51.600;5.718;2023-07-24T04:58:32;3.70;;;2.60;;
68438;SDS011;55421;51.600;5.718;2023-07-24T05:01:03;3.00;;;2.30;;
68438;SDS011;55421;51.600;5.718;2023-07-24T05:03:31;3.60;;;2.40;;
68438;SDS011;55421;51.600;5.718;2023-07-24T05:05:58;4.00;;;2.60;;
68438;SDS011;55421;51.600;5.718;2023-07-24T05:08:24;3.20;;;2.40;;
68438;SDS011;55421;51.600;5.718;2023-07-24T05:10:58;3.80;;;2.70;;
68438;SDS011;55421;51.600;5.718;2023-07-24T05:13:26;3.10;;;2.60;;
68438;SDS011;55421;51.600;5.718;2023-07-24T05:15:53;6.30;;;2.50;;
68438;SDS011;55421;51.600;5.718;2023-07-24T05:18:19;3.20;;;2.90;;
68438;SDS011;55421;51.600;5.718;2023-07-24T05:20:47;3.50;;;3.20;;
68438;SDS011;55421;51.600;5.718;2023-07-24T05:23:14;4.00;;;2.60;;
68438;SDS011;55421;51.600;5.718;2023-07-24T05:25:41;3.40;;;2.90;;
68438;SDS011;55421;51.600;5.718;2023-07-24T05:28:08;3.10;;;2.80;;
68438;SDS011;55421;51.600;5.718;2023-07-24T05:30:35;3.20;;;2.90;;
68438;SDS011;55421;51.600;5.718;2023-07-24T05:33:02;3.10;;;2.70;;
68438;SDS011;55421;51.600;5.718;2023-07-24T05:35:28;3.40;;;3.10;;
68438;SDS011;55421;51.600;5.718;2023-07-24T05:37:55;3.50;;;3.00;;
68438;SDS011;55421;51.600;5.718;2023-07-24T05:40:21;3.10;;;2.80;;
68438;SDS011;55421;51.600;5.718;2023-07-24T05:42:48;3.30;;;2.90;;
68438;SDS011;55421;51.600;5.718;2023-07-24T05:45:14;3.30;;;3.00;;
68438;SDS011;55421;51.600;5.718;2023-07-24T05:47:41;3.60;;;3.30;;
68438;SDS011;55421;51.600;5.718;2023-07-24T05:50:07;5.40;;;2.90;;
68438;SDS011;55421;51.600;5.718;2023-07-24T05:52:34;3.60;;;3.30;;
68438;SDS011;55421;51.600;5.718;2023-07-24T05:55:01;4.60;;;3.40;;
68438;SDS011;55421;51.600;5.718;2023-07-24T05:57:27;3.50;;;3.20;;
68438;SDS011;55421;51.600;5.718;2023-07-24T05:59:54;3.00;;;2.80;;
68438;SDS011;55421;51.600;5.718;2023-07-24T06:02:22;3.50;;;3.20;;
68438;SDS011;55421;51.600;5.718;2023-07-24T06:04:48;3.70;;;3.40;;
68438;SDS011;55421;51.600;5.718;2023-07-24T06:07:15;3.60;;;3.30;;
68438;SDS011;55421;51.600;5.718;2023-07-24T06:09:41;3.80;;;3.50;;
68438;SDS011;55421;51.600;5.718;2023-07-24T06:12:08;3.80;;;3.40;;
68438;SDS011;55421;51.600;5.718;2023-07-24T06:14:34;3.80;;;3.40;;
68438;SDS011;55421;51.600;5.718;2023-07-24T06:17:01;4.30;;;3.50;;
68438;SDS011;55421;51.600;5.718;2023-07-24T06:19:27;4.40;;;3.90;;
68438;SDS011;55421;51.600;5.718;2023-07-24T06:21:54;4.80;;;4.40;;
68438;SDS011;55421;51.600;5.718;2023-07-24T06:24:20;5.00;;;4.40;;
68438;SDS011;55421;51.600;5.718;2023-07-24T06:26:47;4.70;;;4.30;;
68438;SDS011;55421;51.600;5.718;2023-07-24T06:29:14;5.00;;;4.50;;
68438;SDS011;55421;51.600;5.718;2023-07-24T06:31:40;5.50;;;4.50;;
68438;SDS011;55421;51.600;5.718;2023-07-24T06:34:07;5.10;;;4.60;;
68438;SDS011;55421;51.600;5.718;2023-07-24T06:36:34;5.50;;;5.00;;
68438;SDS011;55421;51.600;5.718;2023-07-24T06:39:00;5.80;;;4.90;;
68438;SDS011;55421;51.600;5.718;2023-07-24T06:41:27;4.50;;;4.10;;
68438;SDS011;55421;51.600;5.718;2023-07-24T06:43:53;5.40;;;4.30;;
68438;SDS011;55421;51.600;5.718;2023-07-24T06:46:20;5.20;;;4.60;;
68438;SDS011;55421;51.600;5.718;2023-07-24T06:48:46;5.10;;;4.60;;
68438;SDS011;55421;51.600;5.718;2023-07-24T06:51:12;4.70;;;3.90;;
68438;SDS011;55421;51.600;5.718;2023-07-24T06:53:39;4.00;;;3.40;;
68438;SDS011;55421;51.600;5.718;2023-07-24T06:56:05;4.40;;;4.00;;
68438;SDS011;55421;51.600;5.718;2023-07-24T06:58:32;4.70;;;4.20;;
68438;SDS011;55421;51.600;5.718;2023-07-24T07:00:58;6.70;;;4.30;;
68438;SDS011;55421;51.600;5.718;2023-07-24T07:03:25;4.40;;;4.00;;
68438;SDS011;55421;51.600;5.718;2023-07-24T07:05:51;6.60;;;4.50;;
68438;SDS011;55421;51.600;5.718;2023-07-24T07:08:24;4.70;;;4.20;;
68438;SDS011;55421;51.600;5.718;2023-07-24T07:10:57;6.20;;;5.00;;
68438;SDS011;55421;51.600;5.718;2023-07-24T07:13:27;7.70;;;4.70;;
68438;SDS011;55421;51.600;5.718;2023-07-24T07:15:53;5.80;;;5.10;;
68438;SDS011;55421;51.600;5.718;2023-07-24T07:18:20;6.50;;;5.60;;
68438;SDS011;55421;51.600;5.718;2023-07-24T07:20:47;9.30;;;5.50;;
68438;SDS011;55421;51.600;5.718;2023-07-24T07:23:15;7.70;;;5.50;;
68438;SDS011;55421;51.600;5.718;2023-07-24T07:25:42;6.90;;;5.20;;
68438;SDS011;55421;51.600;5.718;2023-07-24T07:28:12;6.10;;;5.30;;
68438;SDS011;55421;51.600;5.718;2023-07-24T07:30:40;8.40;;;6.00;;
68438;SDS011;55421;51.600;5.718;2023-07-24T07:33:07;8.10;;;5.80;;
68438;SDS011;55421;51.600;5.718;2023-07-24T07:35:34;6.10;;;5.00;;
68438;SDS011;55421;51.600;5.718;2023-07-24T07:38:02;7.20;;;5.60;;
68438;SDS011;55421;51.600;5.718;2023-07-24T07:40:29;6.10;;;5.50;;
68438;SDS011;55421;51.600;5.718;2023-07-24T07:42:56;6.00;;;5.40;;
68438;SDS011;55421;51.600;5.718;2023-07-24T07:45:23;6.30;;;5.40;;
68438;SDS011;55421;51.600;5.718;2023-07-24T07:47:50;5.40;;;4.90;;
68438;SDS011;55421;51.600;5.718;2023-07-24T07:50:19;5.60;;;5.00;;
68438;SDS011;55421;51.600;5.718;2023-07-24T07:52:49;5.90;;;5.10;;
68438;SDS011;55421;51.600;5.718;2023-07-24T07:55:18;4.70;;;4.30;;
68438;SDS011;55421;51.600;5.718;2023-07-24T07:57:45;4.70;;;4.20;;
68438;SDS011;55421;51.600;5.718;2023-07-24T08:00:11;3.20;;;2.90;;
68438;SDS011;55421;51.600;5.718;2023-07-24T08:02:38;3.40;;;2.90;;
68438;SDS011;55421;51.600;5.718;2023-07-24T08:05:09;3.10;;;2.60;;
68438;SDS011;55421;51.600;5.718;2023-07-24T08:07:36;3.30;;;2.40;;
68438;SDS011;55421;51.600;5.718;2023-07-24T08:10:03;5.30;;;2.70;;
68438;SDS011;55421;51.600;5.718;2023-07-24T08:12:30;2.80;;;2.20;;
68438;SDS011;55421;51.600;5.718;2023-07-24T08:14:56;2.70;;;2.50;;
68438;SDS011;55421;51.600;5.718;2023-07-24T08:17:23;3.80;;;2.30;;
68438;SDS011;55421;51.600;5.718;2023-07-24T08:19:50;2.70;;;2.50;;
68438;SDS011;55421;51.600;5.718;2023-07-24T08:22:16;2.90;;;2.60;;
68438;SDS011;55421;51.600;5.718;2023-07-24T08:24:43;2.50;;;2.10;;
68438;SDS011;55421;51.600;5.718;2023-07-24T08:27:11;4.50;;;2.50;;
68438;SDS011;55421;51.600;5.718;2023-07-24T08:29:38;2.80;;;2.50;;
68438;SDS011;55421;51.600;5.718;2023-07-24T08:32:05;4.10;;;2.40;;
68438;SDS011;55421;51.600;5.718;2023-07-24T08:34:31;3.40;;;2.80;;
68438;SDS011;55421;51.600;5.718;2023-07-24T08:36:58;9.00;;;2.50;;
68438;SDS011;55421;51.600;5.718;2023-07-24T08:39:24;3.40;;;3.10;;
68438;SDS011;55421;51.600;5.718;2023-07-24T08:41:51;4.80;;;3.30;;
68438;SDS011;55421;51.600;5.718;2023-07-24T08:44:17;3.30;;;3.00;;
68438;SDS011;55421;51.600;5.718;2023-07-24T08:46:44;3.40;;;3.10;;
68438;SDS011;55421;51.600;5.718;2023-07-24T08:49:13;3.80;;;3.20;;
68438;SDS011;55421;51.600;5.718;2023-07-24T08:51:41;3.80;;;3.30;;
68438;SDS011;55421;51.600;5.718;2023-07-24T08:54:09;4.90;;;4.10;;
68438;SDS011;55421;51.600;5.718;2023-07-24T08:56:37;4.40;;;3.70;;
68438;SDS011;55421;51.600;5.718;2023-07-24T08:59:06;6.10;;;3.80;;
68438;SDS011;55421;51.600;5.718;2023-07-24T09:01:33;4.30;;;3.90;;
68438;SDS011;55421;51.600;5.718;2023-07-24T09:03:59;5.60;;;4.50;;
68438;SDS011;55421;51.600;5.718;2023-07-24T09:06:26;4.50;;;4.10;;
68438;SDS011;55421;51.600;5.718;2023-07-24T09:08:54;4.10;;;3.70;;
68438;SDS011;55421;51.600;5.718;2023-07-24T09:11:20;6.50;;;4.60;;
68438;SDS011;55421;51.600;5.718;2023-07-24T09:13:47;5.10;;;4.60;;
68438;SDS011;55421;51.600;5.718;2023-07-24T09:16:24;6.30;;;4.40;;
68438;SDS011;55421;51.600;5.718;2023-07-24T09:18:52;7.70;;;4.50;;
68438;SDS011;55421;51.600;5.718;2023-07-24T09:21:32;5.60;;;4.70;;
68438;SDS011;55421;51.600;5.718;2023-07-24T09:24:11;5.30;;;4.80;;
68438;SDS011;55421;51.600;5.718;2023-07-24T09:26:49;5.60;;;4.70;;
68438;SDS011;55421;51.600;5.718;2023-07-24T09:29:17;5.30;;;4.80;;
68438;SDS011;55421;51.600;5.718;2023-07-24T09:31:45;5.30;;;4.80;;
68438;SDS011;55421;51.600;5.718;2023-07-24T09:34:16;8.00;;;5.00;;
68438;SDS011;55421;51.600;5.718;2023-07-24T09:36:44;5.00;;;4.50;;
68438;SDS011;55421;51.600;5.718;2023-07-24T09:39:11;5.30;;;4.30;;
68438;SDS011;55421;51.600;5.718;2023-07-24T09:41:39;4.90;;;4.20;;
68438;SDS011;55421;51.600;5.718;2023-07-24T09:44:06;6.80;;;4.40;;
68438;SDS011;55421;51.600;5.718;2023-07-24T09:46:33;5.00;;;4.50;;
68438;SDS011;55421;51.600;5.718;2023-07-24T09:49:00;5.20;;;4.50;;
68438;SDS011;55421;51.600;5.718;2023-07-24T09:51:29;5.70;;;4.90;;
68438;SDS011;55421;51.600;5.718;2023-07-24T09:56:42;5.40;;;4.10;;
68438;SDS011;55421;51.600;5.718;2023-07-24T09:59:12;4.50;;;3.90;;
68438;SDS011;55421;51.600;5.718;2023-07-24T10:01:39;4.30;;;3.90;;
68438;SDS011;55421;51.600;5.718;2023-07-24T10:04:07;4.10;;;3.40;;
68438;SDS011;55421;51.600;5.718;2023-07-24T10:06:34;3.70;;;3.30;;
68438;SDS011;55421;51.600;5.718;2023-07-24T10:09:01;3.90;;;3.50;;
68438;SDS011;55421;51.600;5.718;2023-07-24T10:15:00;3.50;;;3.20;;
68438;SDS011;55421;51.600;5.718;2023-07-24T10:17:39;4.90;;;3.60;;
68438;SDS011;55421;51.600;5.718;2023-07-24T10:20:09;4.20;;;3.80;;
68438;SDS011;55421;51.600;5.718;2023-07-24T10:22:41;3.60;;;3.30;;
68438;SDS011;55421;51.600;5.718;2023-07-24T10:25:09;3.50;;;3.20;;
68438;SDS011;55421;51.600;5.718;2023-07-24T10:27:42;3.40;;;3.10;;
68438;SDS011;55421;51.600;5.718;2023-07-24T10:30:12;4.00;;;3.60;;
68438;SDS011;55421;51.600;5.718;2023-07-24T10:32:46;3.70;;;3.40;;
68438;SDS011;55421;51.600;5.718;2023-07-24T10:35:13;3.90;;;3.30;;
68438;SDS011;55421;51.600;5.718;2023-07-24T10:37:40;3.50;;;3.20;;
68438;SDS011;55421;51.600;5.718;2023-07-24T10:40:18;3.40;;;3.20;;
68438;SDS011;55421;51.600;5.718;2023-07-24T10:42:47;5.20;;;3.20;;
68438;SDS011;55421;51.600;5.718;2023-07-24T10:45:13;3.50;;;3.20;;
68438;SDS011;55421;51.600;5.718;2023-07-24T10:47:39;3.70;;;3.20;;
68438;SDS011;55421;51.600;5.718;2023-07-24T10:50:06;6.10;;;3.50;;
68438;SDS011;55421;51.600;5.718;2023-07-24T10:52:33;4.50;;;3.90;;
68438;SDS011;55421;51.600;5.718;2023-07-24T10:55:01;5.00;;;4.20;;
68438;SDS011;55421;51.600;5.718;2023-07-24T10:57:31;4.70;;;3.40;;
68438;SDS011;55421;51.600;5.718;2023-07-24T10:59:59;4.00;;;3.60;;
68438;SDS011;55421;51.600;5.718;2023-07-24T11:02:26;4.40;;;3.40;;
68438;SDS011;55421;51.600;5.718;2023-07-24T11:04:52;3.40;;;3.00;;
68438;SDS011;55421;51.600;5.718;2023-07-24T11:07:19;3.60;;;2.80;;
68438;SDS011;55421;51.600;5.718;2023-07-24T11:09:48;3.10;;;2.80;;
68438;SDS011;55421;51.600;5.718;2023-07-24T11:12:17;4.60;;;3.30;;
68438;SDS011;55421;51.600;5.718;2023-07-24T11:14:50;3.30;;;3.00;;
68438;SDS011;55421;51.600;5.718;2023-07-24T11:17:20;3.50;;;3.20;;
68438;SDS011;55421;51.600;5.718;2023-07-24T11:19:46;3.90;;;3.50;;
68438;SDS011;55421;51.600;5.718;2023-07-24T11:22:14;3.60;;;3.30;;
68438;SDS011;55421;51.600;5.718;2023-07-24T11:24:47;3.70;;;3.30;;
68438;SDS011;55421;51.600;5.718;2023-07-24T11:27:14;3.50;;;3.20;;
68438;SDS011;55421;51.600;5.718;2023-07-24T11:29:47;3.60;;;3.30;;
68438;SDS011;55421;51.600;5.718;2023-07-24T11:32:21;3.80;;;3.50;;
68438;SDS011;55421;51.600;5.718;2023-07-24T11:34:49;3.50;;;3.20;;
68438;SDS011;55421;51.600;5.718;2023-07-24T11:37:17;3.70;;;3.40;;
68438;SDS011;55421;51.600;5.718;2023-07-24T11:39:58;3.70;;;3.30;;
68438;SDS011;55421;51.600;5.718;2023-07-24T11:42:30;4.00;;;3.40;;
68438;SDS011;55421;51.600;5.718;2023-07-24T11:45:00;3.30;;;3.10;;
68438;SDS011;55421;51.600;5.718;2023-07-24T11:50:00;5.40;;;4.10;;
68438;SDS011;55421;51.600;5.718;2023-07-24T11:52:40;3.90;;;3.50;;
68438;SDS011;55421;51.600;5.718;2023-07-24T11:55:16;4.10;;;3.70;;
68438;SDS011;55421;51.600;5.718;2023-07-24T11:58:00;4.00;;;3.70;;
68438;SDS011;55421;51.600;5.718;2023-07-24T12:00:27;4.60;;;4.20;;
68438;SDS011;55421;51.600;5.718;2023-07-24T12:03:00;3.90;;;3.60;;
68438;SDS011;55421;51.600;5.718;2023-07-24T12:05:37;6.60;;;4.60;;
68438;SDS011;55421;51.600;5.718;2023-07-24T12:08:08;5.10;;;4.60;;
68438;SDS011;55421;51.600;5.718;2023-07-24T12:10:37;4.50;;;4.10;;
68438;SDS011;55421;51.600;5.718;2023-07-24T12:13:05;4.00;;;3.70;;
68438;SDS011;55421;51.600;5.718;2023-07-24T12:15:33;4.60;;;4.20;;
68438;SDS011;55421;51.600;5.718;2023-07-24T12:18:04;6.20;;;3.90;;
68438;SDS011;55421;51.600;5.718;2023-07-24T12:20:31;5.30;;;3.90;;
68438;SDS011;55421;51.600;5.718;2023-07-24T12:22:58;5.90;;;4.10;;
68438;SDS011;55421;51.600;5.718;2023-07-24T12:25:24;5.50;;;4.80;;
68438;SDS011;55421;51.600;5.718;2023-07-24T12:27:51;5.20;;;4.50;;
68438;SDS011;55421;51.600;5.718;2023-07-24T12:30:18;6.50;;;5.40;;
68438;SDS011;55421;51.600;5.718;2023-07-24T12:32:45;5.50;;;5.00;;
68438;SDS011;55421;51.600;5.718;2023-07-24T12:35:11;5.30;;;4.80;;
68438;SDS011;55421;51.600;5.718;2023-07-24T12:37:38;6.00;;;5.40;;
68438;SDS011;55421;51.600;5.718;2023-07-24T12:40:08;6.20;;;5.10;;
68438;SDS011;55421;51.600;5.718;2023-07-24T12:42:35;5.40;;;4.70;;
68438;SDS011;55421;51.600;5.718;2023-07-24T12:45:02;4.90;;;4.50;;
68438;SDS011;55421;51.600;5.718;2023-07-24T12:47:32;5.00;;;4.50;;
68438;SDS011;55421;51.600;5.718;2023-07-24T12:50:00;5.60;;;5.10;;
68438;SDS011;55421;51.600;5.718;2023-07-24T12:52:28;5.20;;;4.70;;
68438;SDS011;55421;51.600;5.718;2023-07-24T12:54:56;5.70;;;4.90;;
68438;SDS011;55421;51.600;5.718;2023-07-24T12:57:22;5.80;;;5.30;;
68438;SDS011;55421;51.600;5.718;2023-07-24T12:59:48;6.60;;;5.70;;
68438;SDS011;55421;51.600;5.718;2023-07-24T13:02:15;6.00;;;5.40;;
68438;SDS011;55421;51.600;5.718;2023-07-24T13:04:42;6.10;;;5.50;;
68438;SDS011;55421;51.600;5.718;2023-07-24T13:07:08;5.70;;;5.00;;
68438;SDS011;55421;51.600;5.718;2023-07-24T13:09:35;6.70;;;6.00;;
68438;SDS011;55421;51.600;5.718;2023-07-24T13:12:01;6.10;;;5.50;;
68438;SDS011;55421;51.600;5.718;2023-07-24T13:14:27;5.70;;;5.20;;
68438;SDS011;55421;51.600;5.718;2023-07-24T13:16:54;6.80;;;5.70;;
68438;SDS011;55421;51.600;5.718;2023-07-24T13:19:21;7.00;;;6.40;;
68438;SDS011;55421;51.600;5.718;2023-07-24T13:21:48;7.40;;;6.70;;
68438;SDS011;55421;51.600;5.718;2023-07-24T13:24:14;7.00;;;6.30;;
68438;SDS011;55421;51.600;5.718;2023-07-24T13:26:41;7.70;;;6.90;;
68438;SDS011;55421;51.600;5.718;2023-07-24T13:29:08;8.30;;;6.30;;
68438;SDS011;55421;51.600;5.718;2023-07-24T13:31:34;8.00;;;6.10;;
68438;SDS011;55421;51.600;5.718;2023-07-24T13:34:01;7.50;;;5.80;;
68438;SDS011;55421;51.600;5.718;2023-07-24T13:36:28;7.00;;;6.30;;
68438;SDS011;55421;51.600;5.718;2023-07-24T13:38:54;6.50;;;5.60;;
68438;SDS011;55421;51.600;5.718;2023-07-24T13:41:21;6.80;;;6.20;;
68438;SDS011;55421;51.600;5.718;2023-07-24T13:43:47;6.60;;;5.60;;
68438;SDS011;55421;51.600;5.718;2023-07-24T13:46:14;7.70;;;7.00;;
68438;SDS011;55421;51.600;5.718;2023-07-24T13:48:40;9.30;;;7.60;;
68438;SDS011;55421;51.600;5.718;2023-07-24T13:51:07;9.80;;;6.50;;
68438;SDS011;55421;51.600;5.718;2023-07-24T13:53:33;8.50;;;7.00;;
68438;SDS011;55421;51.600;5.718;2023-07-24T13:56:00;7.70;;;7.00;;
68438;SDS011;55421;51.600;5.718;2023-07-24T13:58:26;8.60;;;7.00;;
68438;SDS011;55421;51.600;5.718;2023-07-24T14:00:53;8.20;;;7.00;;
68438;SDS011;55421;51.600;5.718;2023-07-24T14:03:19;8.10;;;7.30;;
68438;SDS011;55421;51.600;5.718;2023-07-24T14:05:46;8.20;;;7.30;;
68438;SDS011;55421;51.600;5.718;2023-07-24T14:08:12;7.90;;;7.00;;
68438;SDS011;55421;51.600;5.718;2023-07-24T14:10:39;10.50;;;6.80;;
68438;SDS011;55421;51.600;5.718;2023-07-24T14:13:05;8.90;;;7.40;;
68438;SDS011;55421;51.600;5.718;2023-07-24T14:15:32;9.70;;;8.30;;
68438;SDS011;55421;51.600;5.718;2023-07-24T14:17:58;7.50;;;5.80;;
68438;SDS011;55421;51.600;5.718;2023-07-24T14:20:25;7.30;;;5.40;;
68438;SDS011;55421;51.600;5.718;2023-07-24T14:22:51;3.60;;;3.30;;
68438;SDS011;55421;51.600;5.718;2023-07-24T14:25:17;2.50;;;2.10;;
68438;SDS011;55421;51.600;5.718;2023-07-24T14:27:44;4.00;;;2.30;;
68438;SDS011;55421;51.600;5.718;2023-07-24T14:30:11;2.40;;;1.70;;
68438;SDS011;55421;51.600;5.718;2023-07-24T14:32:37;2.00;;;1.80;;
68438;SDS011;55421;51.600;5.718;2023-07-24T14:35:04;1.40;;;1.40;;
68438;SDS011;55421;51.600;5.718;2023-07-24T14:37:31;1.70;;;1.50;;
68438;SDS011;55421;51.600;5.718;2023-07-24T14:39:58;1.70;;;1.40;;
68438;SDS011;55421;51.600;5.718;2023-07-24T14:42:24;2.70;;;1.80;;
68438;SDS011;55421;51.600;5.718;2023-07-24T14:44:51;2.80;;;1.70;;
68438;SDS011;55421;51.600;5.718;2023-07-24T14:47:18;2.00;;;1.80;;
68438;SDS011;55421;51.600;5.718;2023-07-24T14:49:44;1.90;;;1.80;;
68438;SDS011;55421;51.600;5.718;2023-07-24T14:52:11;2.00;;;1.90;;
68438;SDS011;55421;51.600;5.718;2023-07-24T14:54:37;3.10;;;2.70;;
68438;SDS011;55421;51.600;5.718;2023-07-24T14:57:04;4.00;;;3.40;;
68438;SDS011;55421;51.600;5.718;2023-07-24T14:59:31;4.60;;;4.00;;
68438;SDS011;55421;51.600;5.718;2023-07-24T15:01:57;5.70;;;5.00;;